TimeCDT,TemperatureF,Dew PointF,Humidity,Sea Level PressureIn,VisibilityMPH,Wind Direction,Wind SpeedMPH,Gust SpeedMPH,PrecipitationIn,Events,Conditions,WindDirDegrees,DateUTC
12:01 AM,69.8,64.4,83,29.98,10.0,ESE,5.8,-,N/A,,Clear,110,2013-07-09 05:01:00
12:21 AM,69.8,64.4,83,29.97,10.0,ESE,6.9,-,N/A,,Clear,110,2013-07-09 05:21:00
12:41 AM,69.8,64.4,83,29.97,10.0,ESE,6.9,-,N/A,,Clear,120,2013-07-09 05:41:00
1:01 AM,69.8,64.4,83,29.96,10.0,ESE,4.6,-,N/A,,Clear,110,2013-07-09 06:01:00
1:21 AM,69.8,64.4,83,29.95,10.0,ESE,5.8,-,N/A,,Clear,110,2013-07-09 06:21:00
1:41 AM,69.8,66.2,88,29.94,10.0,ESE,8.1,-,N/A,,Clear,110,2013-07-09 06:41:00
2:01 AM,69.8,66.2,88,29.93,10.0,ESE,8.1,-,N/A,,Clear,120,2013-07-09 07:01:00
2:33 AM,69.8,66.2,88,29.92,7.0,ESE,6.9,-,N/A,,Clear,120,2013-07-09 07:33:00
2:44 AM,69.8,66.2,88,29.91,7.0,ESE,8.1,-,N/A,,Clear,110,2013-07-09 07:44:00
3:13 AM,69.8,66.2,88,29.90,7.0,ESE,6.9,-,N/A,,Clear,120,2013-07-09 08:13:00
3:28 AM,69.8,66.2,88,29.90,7.0,ESE,6.9,-,N/A,,Clear,120,2013-07-09 08:28:00
3:47 AM,69.8,68.0,94,29.89,7.0,ESE,9.2,-,N/A,,Clear,120,2013-07-09 08:47:00
4:02 AM,71.6,68.0,88,29.89,7.0,SE,9.2,-,N/A,,Clear,130,2013-07-09 09:02:00
4:32 AM,71.6,68.0,88,29.89,7.0,ESE,5.8,-,N/A,,Scattered Clouds,120,2013-07-09 09:32:00
4:54 AM,71.6,68.0,88,29.87,7.0,ESE,6.9,-,N/A,,Scattered Clouds,120,2013-07-09 09:54:00
5:15 AM,71.6,68.0,88,29.86,7.0,ESE,6.9,-,N/A,,Clear,110,2013-07-09 10:15:00
5:33 AM,69.8,68.0,94,29.84,7.0,ESE,8.1,-,N/A,,Scattered Clouds,120,2013-07-09 10:33:00
5:43 AM,69.8,68.0,94,29.84,5.0,ESE,9.2,-,N/A,,Clear,120,2013-07-09 10:43:00
6:01 AM,69.8,68.0,94,29.86,7.0,SE,8.1,-,N/A,,Mostly Cloudy,140,2013-07-09 11:01:00
6:25 AM,66.2,64.4,94,29.85,7.0,SSE,5.8,-,N/A,,Overcast,160,2013-07-09 11:25:00
6:41 AM,66.2,64.4,94,29.82,10.0,SE,5.8,-,N/A,,Overcast,130,2013-07-09 11:41:00
7:15 AM,66.2,66.2,100,29.75,10.0,East,11.5,-,N/A,,Mostly Cloudy,90,2013-07-09 12:15:00
7:36 AM,66.2,66.2,100,29.75,10.0,East,6.9,-,N/A,,Clear,100,2013-07-09 12:36:00
7:53 AM,66.2,66.2,100,29.79,10.0,WSW,4.6,-,N/A,,Clear,240,2013-07-09 12:53:00
8:11 AM,68.0,66.2,94,29.80,10.0,WSW,9.2,-,N/A,,Scattered Clouds,240,2013-07-09 13:11:00
8:28 AM,66.2,64.4,94,29.82,10.0,WSW,11.5,-,N/A,,Overcast,240,2013-07-09 13:28:00
8:52 AM,66.2,64.4,94,29.83,2.0,SW,12.7,18.4,N/A,,Overcast,230,2013-07-09 13:52:00
9:01 AM,66.2,64.4,94,29.84,2.0,SW,11.5,-,N/A,,Overcast,230,2013-07-09 14:01:00
9:21 AM,66.2,64.4,94,29.84,2.0,SW,11.5,-,N/A,,Overcast,230,2013-07-09 14:21:00
9:41 AM,66.2,64.4,94,29.83,3.0,SW,9.2,-,N/A,,Overcast,230,2013-07-09 14:41:00
10:01 AM,66.2,66.2,100,29.84,3.0,WSW,5.8,-,N/A,,Overcast,250,2013-07-09 15:01:00
10:21 AM,68.0,66.2,94,29.84,3.0,WNW,8.1,-,N/A,,Mostly Cloudy,290,2013-07-09 15:21:00
10:41 AM,71.6,68.0,88,29.85,10.0,WNW,12.7,16.1,N/A,,Mostly Cloudy,290,2013-07-09 15:41:00
11:01 AM,71.6,68.0,88,29.85,10.0,West,8.1,16.1,N/A,,Mostly Cloudy,270,2013-07-09 16:01:00
11:21 AM,73.4,69.8,88,29.86,10.0,West,11.5,-,N/A,,Mostly Cloudy,280,2013-07-09 16:21:00
11:41 AM,75.2,69.8,83,29.85,10.0,West,13.8,-,N/A,,Mostly Cloudy,280,2013-07-09 16:41:00
12:01 PM,78.8,69.8,74,29.86,10.0,West,11.5,25.3,N/A,,Mostly Cloudy,270,2013-07-09 17:01:00
12:21 PM,78.8,69.8,74,29.86,10.0,West,18.4,21.9,N/A,,Mostly Cloudy,260,2013-07-09 17:21:00
12:41 PM,80.6,71.6,74,29.86,10.0,West,13.8,19.6,N/A,,Scattered Clouds,270,2013-07-09 17:41:00
1:01 PM,80.6,68.0,65,29.86,10.0,West,17.3,23.0,N/A,,Scattered Clouds,280,2013-07-09 18:01:00
1:21 PM,80.6,66.2,61,29.86,10.0,West,18.4,25.3,N/A,,Scattered Clouds,280,2013-07-09 18:21:00
1:41 PM,82.4,66.2,58,29.87,10.0,West,18.4,25.3,N/A,,Scattered Clouds,280,2013-07-09 18:41:00
2:01 PM,80.6,68.0,65,29.87,10.0,West,19.6,23.0,N/A,,Scattered Clouds,280,2013-07-09 19:01:00
2:21 PM,82.4,68.0,62,29.87,10.0,WNW,20.7,25.3,N/A,,Scattered Clouds,300,2013-07-09 19:21:00
2:41 PM,82.4,68.0,62,29.88,10.0,WNW,17.3,21.9,N/A,,Scattered Clouds,290,2013-07-09 19:41:00
3:01 PM,80.6,66.2,61,29.88,10.0,WNW,15.0,20.7,N/A,,Scattered Clouds,300,2013-07-09 20:01:00
3:21 PM,82.4,68.0,62,29.88,10.0,WNW,16.1,23.0,N/A,,Scattered Clouds,300,2013-07-09 20:21:00
3:41 PM,82.4,68.0,62,29.89,10.0,WNW,19.6,24.2,N/A,,Clear,300,2013-07-09 20:41:00
4:01 PM,82.4,66.2,58,29.89,10.0,WNW,18.4,27.6,N/A,,Scattered Clouds,290,2013-07-09 21:01:00
4:41 PM,82.4,64.4,54,29.89,10.0,WNW,18.4,25.3,N/A,,Clear,290,2013-07-09 21:41:00
5:01 PM,82.4,66.2,58,29.90,10.0,WNW,16.1,24.2,N/A,,Scattered Clouds,290,2013-07-09 22:01:00
5:41 PM,80.6,64.4,58,29.90,10.0,WNW,18.4,-,N/A,,Scattered Clouds,290,2013-07-09 22:41:00
6:01 PM,80.6,64.4,58,29.91,10.0,West,15.0,21.9,N/A,,Scattered Clouds,280,2013-07-09 23:01:00
6:41 PM,78.8,66.2,65,29.92,10.0,WNW,18.4,-,N/A,,Scattered Clouds,290,2013-07-09 23:41:00
7:01 PM,77.0,66.2,69,29.93,10.0,NW,18.4,23.0,N/A,,Scattered Clouds,310,2013-07-10 00:01:00
7:21 PM,75.2,64.4,69,29.94,10.0,WNW,19.6,27.6,N/A,,Scattered Clouds,300,2013-07-10 00:21:00
7:41 PM,75.2,64.4,69,29.94,10.0,NW,18.4,25.3,N/A,,Scattered Clouds,310,2013-07-10 00:41:00
8:01 PM,71.6,62.6,73,29.94,10.0,WNW,17.3,26.5,N/A,,Clear,300,2013-07-10 01:01:00
8:21 PM,69.8,62.6,78,29.94,10.0,WNW,12.7,20.7,N/A,,Clear,300,2013-07-10 01:21:00
9:01 PM,69.8,62.6,78,29.96,10.0,WNW,11.5,-,N/A,,Clear,300,2013-07-10 02:01:00
9:21 PM,69.8,62.6,78,29.96,10.0,WNW,11.5,-,N/A,,Scattered Clouds,300,2013-07-10 02:21:00
9:41 PM,68.0,62.6,83,29.98,10.0,WNW,11.5,17.3,N/A,,Scattered Clouds,300,2013-07-10 02:41:00
10:01 PM,66.2,62.6,88,29.99,10.0,NW,12.7,-,N/A,,Scattered Clouds,310,2013-07-10 03:01:00
10:21 PM,66.2,62.6,88,30.00,10.0,WNW,9.2,-,N/A,,Scattered Clouds,300,2013-07-10 03:21:00
10:41 PM,66.2,60.8,83,30.01,10.0,NW,9.2,-,N/A,,Scattered Clouds,310,2013-07-10 03:41:00
11:01 PM,64.4,57.2,77,30.01,10.0,NW,13.8,21.9,N/A,,Clear,320,2013-07-10 04:01:00
11:21 PM,64.4,55.4,73,30.01,10.0,NW,11.5,-,N/A,,Clear,320,2013-07-10 04:21:00